Randolph, NJ

6:35 PM EST on February 06, 2016 (GMT -0500)
APRSWXNET | | Change Station
CLOSE
Current Station
Personal Weather Station
Location: Mine Hill, NJ
Elevation: 902 ft
Nearby Weather Stations

Elev 902 ft 40.87 °N, 74.60 °W | Updated 25 minutes ago

Partly Cloudy
Partly Cloudy
32 °F
Feels Like 32 °F
N
0
Wind Variable Wind from WSW
Gusts 3.0 mph

Today
High -- | Low -- °F
--% Chance of Precip.
Yesterday
High -- | Low -- °F
Precip. -- in
Pressure 30.28 in
Visibility 10.0 miles
Clouds Scattered Clouds 18000 ft
Windchill 32 °F
Dew Point 20 °F
Humidity 61%
Rainfall in
Snow Depth Not available.
7:04 AM 5:21 PM
Waning Crescent, 4% visible
METAR KMMU 062245Z 23003KT 10SM SCT180 02/M06 A3028
Pressure 30.28 in
Visibility 10.0 miles
Clouds Scattered Clouds 18000 ft
Windchill 32 °F
Dew Point 20 °F
Humidity 61%
Rainfall in
Snow Depth Not available.
7:04 AM 5:21 PM
Waning Crescent, 4% visible
METAR KMMU 062245Z 23003KT 10SM SCT180 02/M06 A3028

10-Day Weather Forecast

Almanac

Astronomy

Feb. 06, 2016 Rise Set
Actual Time
Civil Twilight
Nautical Twilight
Astronomical Twilight
Moon
Length of Visible Light
Length of Day
Tomorrow will be .
, % of the Moon is Illuminated

Today's Extremes

State Highs State Lows

Community

WunderPhotos

Upload Photos

1,891,098 photos uploaded!

WunderBlog® & News

Nearby

Air Quality

  Air Quality AQ Index Pollutant
Not available.

Snow Depth

Station Depth Elevation

Earthquake Activity

City Distance Mag. Time & Date
Minimum magnitude displayed is 2.5.

Coastal Water Temperatures

Place Temperature

Stations

Nearby Weather Stations

Station Location Temp. Windchill Dew Point Humidity Wind Precip. Elev Updated Type
                   

Watches & Warnings

There are currently no watches in effect.